Terminal Aerodrome Forecast
Issued by NWS Cleveland, OH

Home | Current Version | Previous Version | Graphics & Text | Print | Product List | Glossary Off
Versions: 1 2 3 4 5 6 7 8 9 10 11 12

000
FTUS41 KCLE 260500
TAFYNG
TAF
KYNG 260540Z 2606/2706 21010KT P6SM BKN060 OVC250
      TEMPO 2608/2610 -SHRA SCT035 BKN050
     FM261000 20008KT 6SM BR BKN035
     FM261700 20010KT P6SM BKN035 OVC250
     FM262300 19010KT P6SM SCT035 OVC250=

USA.gov is the U.S. government's official web portal to all federal, state and local government web resources and services.